<?xml version="1.0" encoding="UTF-8" standalone="no" ?>
<gpx xmlns="http://www.topografix.com/GPX/1/1" xmlns:xsi="http://www.w3.org/2001/XMLSchema-instance" xsi:schemaLocation="http://www.topografix.com/GPX/1/1 http://www.topografix.com/GPX/1/1/gpx.xsd" version="1.1" creator="VisuGPX - https://www.visugpx.com">
  <metadata>
    <name>Refuge d\'EnBeys par SOM</name>
    <desc><![CDATA[Le service SOM d\'ATR effectue sa rando annuelle : cette année le refuge d\'En Beys]]></desc>
  </metadata>
  <wpt lat="43.6406" lon="1.37749">
    <ele>197.68</ele>
    <name><![CDATA[001]]></name>
  </wpt>
  <wpt lat="43.6406" lon="1.37749">
    <ele>197.68</ele>
    <name><![CDATA[002]]></name>
  </wpt>
  <wpt lat="43.64658" lon="1.35136">
    <ele>136.87</ele>
    <name><![CDATA[003]]></name>
  </wpt>
  <wpt lat="43.64625" lon="1.42941">
    <ele>129.66</ele>
    <name><![CDATA[006]]></name>
  </wpt>
  <wpt lat="43.64618" lon="1.47153">
    <ele>130.62</ele>
    <name><![CDATA[007]]></name>
  </wpt>
  <wpt lat="43.63995" lon="1.37782">
    <ele>156.1</ele>
    <name><![CDATA[008]]></name>
  </wpt>
  <wpt lat="44.05513" lon="1.66399">
    <ele>148.65</ele>
    <name><![CDATA[009]]></name>
  </wpt>
  <wpt lat="43.5984" lon="1.18678">
    <ele>237.33</ele>
    <name><![CDATA[010]]></name>
  </wpt>
  <wpt lat="43.5984" lon="1.1868">
    <ele>236.61</ele>
    <name><![CDATA[011]]></name>
  </wpt>
  <wpt lat="43.60112" lon="1.16603">
    <ele>289.96</ele>
    <name><![CDATA[012]]></name>
  </wpt>
  <wpt lat="43.45539" lon="1.28507">
    <ele>180.37</ele>
    <name><![CDATA[013]]></name>
  </wpt>
  <wpt lat="43.17149" lon="2.6426">
    <ele>144.08</ele>
    <name><![CDATA[014]]></name>
  </wpt>
  <wpt lat="43.14788" lon="2.62817">
    <ele>594.94</ele>
    <name><![CDATA[015]]></name>
  </wpt>
  <wpt lat="43.60789" lon="1.44192">
    <ele>147.93</ele>
    <name><![CDATA[016]]></name>
  </wpt>
  <wpt lat="43.64048" lon="1.37749">
    <ele>147.93</ele>
    <name><![CDATA[017]]></name>
  </wpt>
  <wpt lat="43.41991" lon="2.11182">
    <ele>617.29</ele>
    <name><![CDATA[018]]></name>
  </wpt>
  <wpt lat="43.40873" lon="2.0805">
    <ele>605.75</ele>
    <name><![CDATA[019]]></name>
  </wpt>
  <wpt lat="43.63986" lon="1.37794">
    <ele>130.38</ele>
    <name><![CDATA[020]]></name>
  </wpt>
  <wpt lat="43.58877" lon="1.43055">
    <ele>151.53</ele>
    <name><![CDATA[021]]></name>
  </wpt>
  <wpt lat="44.01075" lon="1.98139">
    <ele>283.47</ele>
    <name><![CDATA[022]]></name>
  </wpt>
  <wpt lat="44.01074" lon="1.98145">
    <ele>283.47</ele>
    <name><![CDATA[023]]></name>
  </wpt>
  <wpt lat="43.63959" lon="1.37798">
    <ele>203.44</ele>
    <name><![CDATA[024]]></name>
  </wpt>
  <wpt lat="44.02274" lon="1.72102">
    <ele>411.81</ele>
    <name><![CDATA[025]]></name>
  </wpt>
  <wpt lat="43.99447" lon="1.71359">
    <ele>233.96</ele>
    <name><![CDATA[026]]></name>
  </wpt>
  <wpt lat="43.77243" lon="2.33009">
    <ele>448.82</ele>
    <name><![CDATA[027]]></name>
  </wpt>
  <wpt lat="43.79771" lon="2.35107">
    <ele>324.33</ele>
    <name><![CDATA[028]]></name>
  </wpt>
  <wpt lat="43.79758" lon="2.35132">
    <ele>329.37</ele>
    <name><![CDATA[029]]></name>
  </wpt>
  <wpt lat="43.77274" lon="2.33008">
    <ele>426.95</ele>
    <name><![CDATA[030]]></name>
  </wpt>
  <wpt lat="42.75647" lon="1.84109">
    <ele>1445.22</ele>
    <name><![CDATA[031]]></name>
  </wpt>
  <wpt lat="42.75516" lon="1.84278">
    <ele>1463.96</ele>
    <name><![CDATA[032]]></name>
  </wpt>
  <wpt lat="42.74706" lon="1.86587">
    <ele>1724.96</ele>
    <name><![CDATA[033]]></name>
  </wpt>
  <wpt lat="42.52297" lon="2.22161">
    <ele>847.28</ele>
    <name><![CDATA[034]]></name>
  </wpt>
  <wpt lat="42.50294" lon="2.2306">
    <ele>1187.34</ele>
    <name><![CDATA[035]]></name>
  </wpt>
  <wpt lat="43.63985" lon="1.37729">
    <ele>157.3</ele>
    <name><![CDATA[036]]></name>
  </wpt>
  <wpt lat="43.51772" lon="1.45337">
    <ele>262.08</ele>
    <name><![CDATA[037]]></name>
  </wpt>
  <wpt lat="42.94104" lon="1.70562">
    <ele>602.15</ele>
    <name><![CDATA[038]]></name>
  </wpt>
  <wpt lat="43.56608" lon="1.30436">
    <ele>164.75</ele>
    <name><![CDATA[039]]></name>
  </wpt>
  <wpt lat="43.566" lon="1.30442">
    <ele>164.75</ele>
    <name><![CDATA[040]]></name>
  </wpt>
  <wpt lat="43.84273" lon="2.08345">
    <ele>238.53</ele>
    <name><![CDATA[041]]></name>
  </wpt>
  <wpt lat="43.84274" lon="2.08345">
    <ele>238.53</ele>
    <name><![CDATA[042]]></name>
  </wpt>
  <wpt lat="43.54795" lon="1.45382">
    <ele>232.52</ele>
    <name><![CDATA[043]]></name>
  </wpt>
  <wpt lat="43.10582" lon="0.61792">
    <ele>401.47</ele>
    <name><![CDATA[044]]></name>
  </wpt>
  <wpt lat="43.10579" lon="0.61796">
    <ele>411.81</ele>
    <name><![CDATA[045]]></name>
  </wpt>
  <wpt lat="31.62925" lon="-7.9902">
    <ele>487.27</ele>
    <name><![CDATA[046]]></name>
  </wpt>
  <wpt lat="31.62762" lon="-7.99034">
    <ele>500.49</ele>
    <name><![CDATA[047]]></name>
  </wpt>
  <wpt lat="31.23534" lon="-7.66435">
    <ele>1387.06</ele>
    <name><![CDATA[048]]></name>
  </wpt>
  <wpt lat="38.85555" lon="-94.79902">
    <ele>3.01</ele>
    <name><![CDATA[GARMIN]]></name>
  </wpt>
  <wpt lat="50.98288" lon="-1.4639">
    <ele>3.01</ele>
    <name><![CDATA[GRMEUR]]></name>
  </wpt>
  <wpt lat="25.06178" lon="121.64027">
    <ele>3.01</ele>
    <name><![CDATA[GRMTWN]]></name>
  </wpt>
  <wpt lat="43.61173" lon="1.32782">
    <ele>107.31</ele>
    <name><![CDATA[MAP]]></name>
  </wpt>
  <trk>
    <name><![CDATA[ACTIVE LOG: 10 OCT 2015 14:40]]></name>
    <trkseg>
      <trkpt lat="42.62649" lon="1.94417">
        <ele>1962.67</ele>
        <time>2015-10-10T14:40:43Z</time>
      </trkpt>
      <trkpt lat="42.62638" lon="1.94417">
        <ele>1958.34</ele>
        <time>2015-10-10T14:40:52Z</time>
      </trkpt>
      <trkpt lat="42.62638" lon="1.94417">
        <ele>1962.67</ele>
        <time>2015-10-10T14:40:53Z</time>
      </trkpt>
      <trkpt lat="42.6264" lon="1.9441">
        <ele>1957.86</ele>
        <time>2015-10-10T14:40:59Z</time>
      </trkpt>
      <trkpt lat="42.6264" lon="1.94408">
        <ele>1962.67</ele>
        <time>2015-10-10T14:41:00Z</time>
      </trkpt>
      <trkpt lat="42.6264" lon="1.94406">
        <ele>1959.3</ele>
        <time>2015-10-10T14:41:01Z</time>
      </trkpt>
      <trkpt lat="42.62641" lon="1.94403">
        <ele>1966.03</ele>
        <time>2015-10-10T14:41:02Z</time>
      </trkpt>
      <trkpt lat="42.62644" lon="1.94395">
        <ele>1968.44</ele>
        <time>2015-10-10T14:41:04Z</time>
      </trkpt>
      <trkpt lat="42.62646" lon="1.94387">
        <ele>1967.96</ele>
        <time>2015-10-10T14:41:08Z</time>
      </trkpt>
      <trkpt lat="42.62631" lon="1.94379">
        <ele>1968.92</ele>
        <time>2015-10-10T14:41:14Z</time>
      </trkpt>
      <trkpt lat="42.62628" lon="1.94379">
        <ele>1968.44</ele>
        <time>2015-10-10T14:41:15Z</time>
      </trkpt>
      <trkpt lat="42.62621" lon="1.94386">
        <ele>1968.44</ele>
        <time>2015-10-10T14:41:19Z</time>
      </trkpt>
      <trkpt lat="42.62621" lon="1.94388">
        <ele>1972.28</ele>
        <time>2015-10-10T14:41:21Z</time>
      </trkpt>
      <trkpt lat="42.62622" lon="1.94388">
        <ele>1968.44</ele>
        <time>2015-10-10T14:41:23Z</time>
      </trkpt>
      <trkpt lat="42.62623" lon="1.94387">
        <ele>1968.44</ele>
        <time>2015-10-10T14:41:24Z</time>
      </trkpt>
      <trkpt lat="42.6263" lon="1.94398">
        <ele>1968.92</ele>
        <time>2015-10-10T14:41:34Z</time>
      </trkpt>
      <trkpt lat="42.6263" lon="1.94398">
        <ele>1969.88</ele>
        <time>2015-10-10T14:41:35Z</time>
      </trkpt>
      <trkpt lat="42.6263" lon="1.944">
        <ele>1973.24</ele>
        <time>2015-10-10T14:41:38Z</time>
      </trkpt>
      <trkpt lat="42.62631" lon="1.94401">
        <ele>1972.28</ele>
        <time>2015-10-10T14:41:40Z</time>
      </trkpt>
      <trkpt lat="42.62635" lon="1.94403">
        <ele>1973.72</ele>
        <time>2015-10-10T14:41:45Z</time>
      </trkpt>
      <trkpt lat="42.62637" lon="1.94407">
        <ele>1973.24</ele>
        <time>2015-10-10T14:41:47Z</time>
      </trkpt>
      <trkpt lat="42.62647" lon="1.94417">
        <ele>1972.76</ele>
        <time>2015-10-10T14:41:52Z</time>
      </trkpt>
      <trkpt lat="42.62651" lon="1.94419">
        <ele>1970.84</ele>
        <time>2015-10-10T14:41:54Z</time>
      </trkpt>
      <trkpt lat="42.62653" lon="1.94419">
        <ele>1975.65</ele>
        <time>2015-10-10T14:41:55Z</time>
      </trkpt>
      <trkpt lat="42.62655" lon="1.9442">
        <ele>1974.69</ele>
        <time>2015-10-10T14:41:59Z</time>
      </trkpt>
      <trkpt lat="42.62653" lon="1.9442">
        <ele>1976.61</ele>
        <time>2015-10-10T14:42:02Z</time>
      </trkpt>
      <trkpt lat="42.62652" lon="1.94417">
        <ele>1973.24</ele>
        <time>2015-10-10T14:42:06Z</time>
      </trkpt>
      <trkpt lat="42.62652" lon="1.94416">
        <ele>1975.17</ele>
        <time>2015-10-10T14:42:07Z</time>
      </trkpt>
      <trkpt lat="42.62652" lon="1.94416">
        <ele>1976.13</ele>
        <time>2015-10-10T14:42:09Z</time>
      </trkpt>
      <trkpt lat="42.62655" lon="1.94408">
        <ele>1975.65</ele>
        <time>2015-10-10T14:42:17Z</time>
      </trkpt>
      <trkpt lat="42.62657" lon="1.94403">
        <ele>1974.2</ele>
        <time>2015-10-10T14:42:22Z</time>
      </trkpt>
      <trkpt lat="42.62659" lon="1.94399">
        <ele>1978.53</ele>
        <time>2015-10-10T14:42:24Z</time>
      </trkpt>
      <trkpt lat="42.62662" lon="1.94385">
        <ele>1978.53</ele>
        <time>2015-10-10T14:42:30Z</time>
      </trkpt>
      <trkpt lat="42.6267" lon="1.94362">
        <ele>1979.97</ele>
        <time>2015-10-10T14:42:37Z</time>
      </trkpt>
      <trkpt lat="42.6268" lon="1.94326">
        <ele>1976.13</ele>
        <time>2015-10-10T14:42:40Z</time>
      </trkpt>
      <trkpt lat="42.62682" lon="1.9432">
        <ele>1976.61</ele>
        <time>2015-10-10T14:42:41Z</time>
      </trkpt>
      <trkpt lat="42.62688" lon="1.94301">
        <ele>1980.45</ele>
        <time>2015-10-10T14:42:45Z</time>
      </trkpt>
      <trkpt lat="42.627" lon="1.94277">
        <ele>1979.49</ele>
        <time>2015-10-10T14:42:53Z</time>
      </trkpt>
      <trkpt lat="42.62706" lon="1.94266">
        <ele>1980.45</ele>
        <time>2015-10-10T14:42:57Z</time>
      </trkpt>
      <trkpt lat="42.62726" lon="1.94251">
        <ele>1982.38</ele>
        <time>2015-10-10T14:43:09Z</time>
      </trkpt>
      <trkpt lat="42.62736" lon="1.94246">
        <ele>1981.41</ele>
        <time>2015-10-10T14:43:14Z</time>
      </trkpt>
      <trkpt lat="42.6275" lon="1.94239">
        <ele>1980.45</ele>
        <time>2015-10-10T14:43:21Z</time>
      </trkpt>
      <trkpt lat="42.62686" lon="1.9439">
        <ele>1980.93</ele>
        <time>2015-10-10T14:43:26Z</time>
      </trkpt>
      <trkpt lat="42.62646" lon="1.94429">
        <ele>1985.26</ele>
        <time>2015-10-10T14:43:29Z</time>
      </trkpt>
      <trkpt lat="42.62605" lon="1.94442">
        <ele>1985.74</ele>
        <time>2015-10-10T14:43:38Z</time>
      </trkpt>
      <trkpt lat="42.62612" lon="1.94449">
        <ele>1987.18</ele>
        <time>2015-10-10T14:43:46Z</time>
      </trkpt>
      <trkpt lat="42.62614" lon="1.94446">
        <ele>1984.3</ele>
        <time>2015-10-10T14:43:48Z</time>
      </trkpt>
      <trkpt lat="42.62615" lon="1.94444">
        <ele>1984.78</ele>
        <time>2015-10-10T14:43:49Z</time>
      </trkpt>
      <trkpt lat="42.62616" lon="1.94443">
        <ele>1988.62</ele>
        <time>2015-10-10T14:43:50Z</time>
      </trkpt>
      <trkpt lat="42.62617" lon="1.94442">
        <ele>1988.14</ele>
        <time>2015-10-10T14:43:51Z</time>
      </trkpt>
      <trkpt lat="42.6262" lon="1.94444">
        <ele>1987.66</ele>
        <time>2015-10-10T14:43:57Z</time>
      </trkpt>
      <trkpt lat="42.62621" lon="1.94444">
        <ele>1988.62</ele>
        <time>2015-10-10T14:43:58Z</time>
      </trkpt>
      <trkpt lat="42.62623" lon="1.94452">
        <ele>1986.22</ele>
        <time>2015-10-10T14:44:03Z</time>
      </trkpt>
      <trkpt lat="42.62632" lon="1.94458">
        <ele>1990.07</ele>
        <time>2015-10-10T14:44:08Z</time>
      </trkpt>
      <trkpt lat="42.62635" lon="1.94459">
        <ele>1987.66</ele>
        <time>2015-10-10T14:44:09Z</time>
      </trkpt>
      <trkpt lat="42.62635" lon="1.94463">
        <ele>1987.66</ele>
        <time>2015-10-10T14:44:14Z</time>
      </trkpt>
      <trkpt lat="42.62631" lon="1.94466">
        <ele>1991.03</ele>
        <time>2015-10-10T14:44:16Z</time>
      </trkpt>
      <trkpt lat="42.62625" lon="1.94468">
        <ele>1991.03</ele>
        <time>2015-10-10T14:44:18Z</time>
      </trkpt>
      <trkpt lat="42.62624" lon="1.94471">
        <ele>1988.62</ele>
        <time>2015-10-10T14:44:20Z</time>
      </trkpt>
      <trkpt lat="42.62625" lon="1.94471">
        <ele>1989.59</ele>
        <time>2015-10-10T14:44:21Z</time>
      </trkpt>
      <trkpt lat="42.62641" lon="1.94454">
        <ele>1991.03</ele>
        <time>2015-10-10T14:44:24Z</time>
      </trkpt>
      <trkpt lat="42.62644" lon="1.94441">
        <ele>1990.07</ele>
        <time>2015-10-10T14:44:29Z</time>
      </trkpt>
      <trkpt lat="42.62639" lon="1.94423">
        <ele>1992.95</ele>
        <time>2015-10-10T14:44:42Z</time>
      </trkpt>
      <trkpt lat="42.62639" lon="1.94425">
        <ele>1992.47</ele>
        <time>2015-10-10T14:44:45Z</time>
      </trkpt>
      <trkpt lat="42.6264" lon="1.94426">
        <ele>1990.55</ele>
        <time>2015-10-10T14:44:49Z</time>
      </trkpt>
      <trkpt lat="42.62639" lon="1.94422">
        <ele>1992.47</ele>
        <time>2015-10-10T14:44:51Z</time>
      </trkpt>
      <trkpt lat="42.62634" lon="1.94419">
        <ele>1991.03</ele>
        <time>2015-10-10T14:44:55Z</time>
      </trkpt>
      <trkpt lat="42.62633" lon="1.94419">
        <ele>1994.87</ele>
        <time>2015-10-10T14:44:56Z</time>
      </trkpt>
      <trkpt lat="42.62631" lon="1.94419">
        <ele>1993.43</ele>
        <time>2015-10-10T14:44:57Z</time>
      </trkpt>
      <trkpt lat="42.62614" lon="1.94411">
        <ele>1991.03</ele>
        <time>2015-10-10T14:45:03Z</time>
      </trkpt>
      <trkpt lat="42.62594" lon="1.94417">
        <ele>1993.91</ele>
        <time>2015-10-10T14:45:14Z</time>
      </trkpt>
      <trkpt lat="42.62592" lon="1.94413">
        <ele>1991.03</ele>
        <time>2015-10-10T14:45:16Z</time>
      </trkpt>
      <trkpt lat="42.62591" lon="1.94413">
        <ele>1995.35</ele>
        <time>2015-10-10T14:45:20Z</time>
      </trkpt>
      <trkpt lat="42.62591" lon="1.94417">
        <ele>1992.47</ele>
        <time>2015-10-10T14:45:22Z</time>
      </trkpt>
      <trkpt lat="42.62588" lon="1.94427">
        <ele>1994.87</ele>
        <time>2015-10-10T14:45:27Z</time>
      </trkpt>
      <trkpt lat="42.62582" lon="1.94429">
        <ele>1994.39</ele>
        <time>2015-10-10T14:45:30Z</time>
      </trkpt>
      <trkpt lat="42.62565" lon="1.94435">
        <ele>1994.39</ele>
        <time>2015-10-10T14:45:39Z</time>
      </trkpt>
      <trkpt lat="42.62534" lon="1.94447">
        <ele>1995.35</ele>
        <time>2015-10-10T14:45:55Z</time>
      </trkpt>
      <trkpt lat="42.62531" lon="1.94449">
        <ele>1992.47</ele>
        <time>2015-10-10T14:45:57Z</time>
      </trkpt>
    </trkseg>
  </trk>
</gpx>